createdAt,value
2018-07-27T00:00:45.869Z,988.28
2018-07-27T00:01:45.800Z,988.26
2018-07-27T00:02:45.731Z,988.25
2018-07-27T00:03:45.661Z,988.23
2018-07-27T00:04:45.591Z,988.20
2018-07-27T00:05:45.521Z,988.23
2018-07-27T00:06:45.451Z,988.21
2018-07-27T00:07:45.383Z,988.20
2018-07-27T00:08:45.312Z,988.15
2018-07-27T00:09:45.242Z,988.16
2018-07-27T00:10:45.172Z,988.18
2018-07-27T00:11:45.102Z,988.17
2018-07-27T00:12:45.033Z,988.13
2018-07-27T00:13:44.963Z,988.14
2018-07-27T00:14:44.894Z,988.09
2018-07-27T00:15:44.823Z,988.07
2018-07-27T00:16:45.103Z,988.02
2018-07-27T00:17:44.682Z,988.04
2018-07-27T00:18:44.614Z,988.03
2018-07-27T00:19:44.543Z,988.00
2018-07-27T00:20:44.472Z,988.02
2018-07-27T00:21:44.403Z,988.01
2018-07-27T00:22:44.333Z,987.97
2018-07-27T00:23:44.264Z,988.00
2018-07-27T00:24:44.193Z,987.98
2018-07-27T00:25:44.124Z,987.96
2018-07-27T00:26:44.053Z,987.98
2018-07-27T00:27:43.982Z,987.96
2018-07-27T00:28:43.913Z,987.96
2018-07-27T00:29:43.841Z,987.97
2018-07-27T00:30:43.773Z,987.95
2018-07-27T00:31:43.704Z,987.97
2018-07-27T00:32:43.632Z,988.00
2018-07-27T00:33:43.562Z,987.99
2018-07-27T00:34:43.493Z,987.99
2018-07-27T00:35:43.423Z,987.98
2018-07-27T00:36:43.353Z,987.98
2018-07-27T00:37:43.283Z,988.00
2018-07-27T00:38:43.212Z,987.98
2018-07-27T00:39:43.144Z,987.95
2018-07-27T00:40:43.072Z,987.93
2018-07-27T00:41:43.003Z,987.98
2018-07-27T00:42:42.933Z,987.96
2018-07-27T00:43:42.863Z,987.97
2018-07-27T00:44:42.791Z,987.97
2018-07-27T00:45:42.722Z,987.98
2018-07-27T00:46:42.652Z,987.96
2018-07-27T00:47:42.584Z,987.99
2018-07-27T00:48:42.511Z,988.00
2018-07-27T00:49:42.441Z,987.99
2018-07-27T00:50:42.371Z,988.00
2018-07-27T00:51:42.304Z,988.02
2018-07-27T00:52:42.231Z,988.00
2018-07-27T00:53:42.161Z,987.99
2018-07-27T00:54:42.093Z,988.00
2018-07-27T00:55:42.020Z,987.99
2018-07-27T00:56:41.948Z,987.97
2018-07-27T00:57:41.880Z,987.99
2018-07-27T00:58:41.812Z,987.96
2018-07-27T00:59:41.739Z,987.98
2018-07-27T01:00:41.669Z,987.97
2018-07-27T01:01:41.600Z,987.98
2018-07-27T01:02:41.528Z,987.97
2018-07-27T01:03:41.461Z,987.94
2018-07-27T01:04:41.388Z,987.98
2018-07-27T01:05:41.318Z,987.91
2018-07-27T01:06:41.248Z,987.94
2018-07-27T01:07:41.178Z,987.91
2018-07-27T01:08:41.108Z,987.90
2018-07-27T01:09:41.036Z,987.90
2018-07-27T01:10:40.967Z,987.89
2018-07-27T01:11:40.896Z,987.89
2018-07-27T01:12:40.825Z,987.91
2018-07-27T01:13:40.756Z,987.87
2018-07-27T01:14:40.686Z,987.85
2018-07-27T01:15:40.615Z,987.83
2018-07-27T01:16:40.544Z,987.84
2018-07-27T01:17:40.473Z,987.81
2018-07-27T01:18:40.403Z,987.83
2018-07-27T01:19:40.335Z,987.84
2018-07-27T01:20:40.263Z,987.82
2018-07-27T01:21:40.192Z,987.81
2018-07-27T01:22:40.122Z,987.81
2018-07-27T01:23:40.051Z,987.82
2018-07-27T01:24:39.980Z,987.81
2018-07-27T01:25:39.911Z,987.85
2018-07-27T01:26:39.840Z,987.84
2018-07-27T01:27:39.769Z,987.84
2018-07-27T01:28:39.699Z,987.85
2018-07-27T01:29:39.629Z,987.82
2018-07-27T01:30:39.558Z,987.83
2018-07-27T01:31:39.488Z,987.84
2018-07-27T01:32:39.416Z,987.83
2018-07-27T01:33:39.346Z,987.86
2018-07-27T01:34:39.276Z,987.81
2018-07-27T01:35:39.206Z,987.83
2018-07-27T01:36:39.135Z,987.84
2018-07-27T01:37:39.065Z,987.86
2018-07-27T01:38:38.996Z,987.84
2018-07-27T01:39:38.923Z,987.86
2018-07-27T01:40:38.855Z,987.83
2018-07-27T01:41:38.782Z,987.87
2018-07-27T01:42:38.712Z,987.80
2018-07-27T01:43:38.641Z,987.82
2018-07-27T01:44:38.570Z,987.81
2018-07-27T01:45:38.499Z,987.85
2018-07-27T01:46:38.430Z,987.85
2018-07-27T01:47:38.364Z,987.85
2018-07-27T01:48:38.289Z,987.88
2018-07-27T01:49:38.217Z,987.86
2018-07-27T01:50:38.146Z,987.86
2018-07-27T01:51:38.076Z,987.85
2018-07-27T01:52:38.004Z,987.86
2018-07-27T01:53:37.933Z,987.82
2018-07-27T01:54:37.864Z,987.81
2018-07-27T01:55:37.794Z,987.79
2018-07-27T01:56:37.722Z,987.79
2018-07-27T01:57:38.000Z,987.79
2018-07-27T01:58:37.584Z,987.81
2018-07-27T01:59:37.510Z,987.78
2018-07-27T02:00:37.438Z,987.76
2018-07-27T02:01:37.368Z,987.76
2018-07-27T02:02:37.297Z,987.78
2018-07-27T02:03:37.228Z,987.79
2018-07-27T02:04:37.156Z,987.77
2018-07-27T02:05:37.085Z,987.73
2018-07-27T02:06:37.016Z,987.77
2018-07-27T02:07:36.944Z,987.72
2018-07-27T02:08:36.871Z,987.78
2018-07-27T02:09:36.802Z,987.74
2018-07-27T02:10:36.731Z,987.71
2018-07-27T02:11:36.661Z,987.73
2018-07-27T02:12:36.589Z,987.75
2018-07-27T02:13:36.518Z,987.73
2018-07-27T02:14:36.448Z,987.71
2018-07-27T02:15:36.377Z,987.70
2018-07-27T02:16:36.306Z,987.74
2018-07-27T02:17:36.235Z,987.72
2018-07-27T02:18:36.166Z,987.73
2018-07-27T02:19:36.094Z,987.74
2018-07-27T02:20:36.024Z,987.77
2018-07-27T02:21:35.952Z,987.74
2018-07-27T02:22:35.880Z,987.76
2018-07-27T02:23:35.817Z,987.79
2018-07-27T02:24:35.739Z,987.76
2018-07-27T02:25:35.668Z,987.79
2018-07-27T02:26:35.599Z,987.77
2018-07-27T02:27:35.528Z,987.76
2018-07-27T02:28:35.455Z,987.74
2018-07-27T02:29:35.386Z,987.72
2018-07-27T02:30:35.315Z,987.73
2018-07-27T02:31:35.244Z,987.71
2018-07-27T02:32:35.189Z,987.70
2018-07-27T02:33:35.106Z,987.69
2018-07-27T02:34:35.032Z,987.68
2018-07-27T02:35:34.963Z,987.70
2018-07-27T02:36:34.888Z,987.69
2018-07-27T02:37:34.819Z,987.65
2018-07-27T02:38:34.749Z,987.64
2018-07-27T02:39:34.683Z,987.62
2018-07-27T02:40:34.607Z,987.63
2018-07-27T02:41:34.535Z,987.62
2018-07-27T02:42:34.464Z,987.63
2018-07-27T02:43:34.395Z,987.61
2018-07-27T02:44:34.324Z,987.56
2018-07-27T02:45:34.255Z,987.55
2018-07-27T02:46:34.186Z,987.59
2018-07-27T02:47:34.111Z,987.62
2018-07-27T02:48:34.040Z,987.59
2018-07-27T02:49:33.969Z,987.61
2018-07-27T02:50:33.898Z,987.64
2018-07-27T02:51:33.828Z,987.60
2018-07-27T02:52:33.757Z,987.67
2018-07-27T02:53:33.686Z,987.62
2018-07-27T02:54:33.616Z,987.63
2018-07-27T02:55:33.545Z,987.63
2018-07-27T02:56:33.473Z,987.66
2018-07-27T02:57:33.404Z,987.67
2018-07-27T02:58:33.333Z,987.61
2018-07-27T02:59:33.262Z,987.59
2018-07-27T03:00:33.190Z,987.65
2018-07-27T03:01:33.119Z,987.60
2018-07-27T03:02:33.050Z,987.56
2018-07-27T03:03:32.979Z,987.59
2018-07-27T03:04:32.906Z,987.62
2018-07-27T03:05:32.836Z,987.57
2018-07-27T03:06:32.767Z,987.59
2018-07-27T03:07:32.695Z,987.59
2018-07-27T03:08:32.622Z,987.59
2018-07-27T03:09:32.593Z,987.62
2018-07-27T03:10:32.503Z,987.61
2018-07-27T03:11:32.410Z,987.57
2018-07-27T03:12:32.340Z,987.58
2018-07-27T03:13:32.269Z,987.60
2018-07-27T03:14:32.201Z,987.56
2018-07-27T03:15:32.128Z,987.56
2018-07-27T03:16:32.056Z,987.56
2018-07-27T03:17:31.984Z,987.49
2018-07-27T03:18:31.916Z,987.53
2018-07-27T03:19:31.845Z,987.50
2018-07-27T03:20:31.773Z,987.48
2018-07-27T03:21:31.702Z,987.50
2018-07-27T03:22:31.633Z,987.49
2018-07-27T03:23:31.561Z,987.45
2018-07-27T03:24:31.490Z,987.48
2018-07-27T03:25:31.419Z,987.49
2018-07-27T03:26:31.347Z,987.47
2018-07-27T03:27:31.277Z,987.47
2018-07-27T03:28:31.205Z,987.45
2018-07-27T03:29:31.136Z,987.43
2018-07-27T03:30:31.067Z,987.47
2018-07-27T03:31:30.995Z,987.44
2018-07-27T03:32:30.922Z,987.44
2018-07-27T03:33:30.850Z,987.50
2018-07-27T03:34:30.779Z,987.46
2018-07-27T03:35:30.708Z,987.49
2018-07-27T03:36:30.637Z,987.50
2018-07-27T03:37:30.566Z,987.46
2018-07-27T03:38:30.495Z,987.47
2018-07-27T03:39:30.424Z,987.48
2018-07-27T03:40:30.352Z,987.51
2018-07-27T03:41:30.282Z,987.49
2018-07-27T03:42:30.211Z,987.50
2018-07-27T03:43:30.141Z,987.50
2018-07-27T03:44:30.069Z,987.48
2018-07-27T03:45:29.997Z,987.45
2018-07-27T03:46:29.926Z,987.45
2018-07-27T03:47:29.856Z,987.48
2018-07-27T03:48:29.784Z,987.46
2018-07-27T03:49:29.712Z,987.43
2018-07-27T03:50:29.640Z,987.41
2018-07-27T03:51:29.571Z,987.45
2018-07-27T03:52:29.498Z,987.44
2018-07-27T03:53:29.428Z,987.45
2018-07-27T03:54:29.358Z,987.45
2018-07-27T03:55:29.286Z,987.47
2018-07-27T03:56:29.214Z,987.47
2018-07-27T03:57:29.144Z,987.44
2018-07-27T03:58:29.075Z,987.42
2018-07-27T03:59:29.004Z,987.40
2018-07-27T04:00:28.929Z,987.43
2018-07-27T04:01:28.859Z,987.39
2018-07-27T04:02:28.790Z,987.36
2018-07-27T04:03:28.718Z,987.33
2018-07-27T04:04:28.645Z,987.39
2018-07-27T04:05:28.574Z,987.37
2018-07-27T04:06:28.502Z,987.39
2018-07-27T04:07:28.433Z,987.39
2018-07-27T04:08:28.363Z,987.39
2018-07-27T04:09:28.289Z,987.43
2018-07-27T04:10:28.218Z,987.43
2018-07-27T04:11:28.148Z,987.45
2018-07-27T04:12:28.076Z,987.48
2018-07-27T04:13:28.004Z,987.47
2018-07-27T04:14:27.933Z,987.44
2018-07-27T04:15:27.867Z,987.45
2018-07-27T04:16:27.790Z,987.46
2018-07-27T04:17:27.720Z,987.45
2018-07-27T04:18:27.651Z,987.44
2018-07-27T04:19:27.579Z,987.43
2018-07-27T04:20:27.506Z,987.43
2018-07-27T04:21:27.436Z,987.46
2018-07-27T04:22:27.429Z,987.47
2018-07-27T04:23:27.294Z,987.49
2018-07-27T04:24:27.222Z,987.49
2018-07-27T04:25:27.152Z,987.45
2018-07-27T04:26:27.309Z,987.47
2018-07-27T04:27:27.011Z,987.50
2018-07-27T04:28:26.939Z,987.45
2018-07-27T04:29:26.867Z,987.44
2018-07-27T04:30:26.797Z,987.41
2018-07-27T04:31:26.726Z,987.40
2018-07-27T04:32:26.653Z,987.44
2018-07-27T04:33:26.584Z,987.43
2018-07-27T04:34:26.514Z,987.45
2018-07-27T04:35:26.442Z,987.42
2018-07-27T04:36:26.371Z,987.42
2018-07-27T04:37:26.298Z,987.44
2018-07-27T04:38:26.228Z,987.42
2018-07-27T04:39:26.157Z,987.44
2018-07-27T04:40:26.086Z,987.47
2018-07-27T04:41:26.015Z,987.44
2018-07-27T04:42:25.944Z,987.44
2018-07-27T04:43:25.873Z,987.44
2018-07-27T04:44:25.801Z,987.41
2018-07-27T04:45:25.731Z,987.41
2018-07-27T04:46:25.659Z,987.42
2018-07-27T04:47:25.588Z,987.43
2018-07-27T04:48:25.514Z,987.39
2018-07-27T04:49:25.473Z,987.39
2018-07-27T04:50:25.375Z,987.41
2018-07-27T04:51:25.302Z,987.38
2018-07-27T04:52:25.234Z,987.40
2018-07-27T04:53:25.163Z,987.40
2018-07-27T04:54:25.106Z,987.42
2018-07-27T04:55:25.020Z,987.41
2018-07-27T04:56:24.955Z,987.41
2018-07-27T04:57:24.876Z,987.41
2018-07-27T04:58:24.806Z,987.42
2018-07-27T04:59:24.737Z,987.44
2018-07-27T05:00:24.662Z,987.41
2018-07-27T05:01:24.591Z,987.39
2018-07-27T05:02:24.521Z,987.38
2018-07-27T05:03:24.454Z,987.41
2018-07-27T05:04:24.379Z,987.35
2018-07-27T05:05:24.308Z,987.37
2018-07-27T05:06:24.236Z,987.40
2018-07-27T05:07:24.166Z,987.40
2018-07-27T05:08:24.094Z,987.38
2018-07-27T05:09:24.023Z,987.37
2018-07-27T05:10:23.952Z,987.40
2018-07-27T05:11:23.882Z,987.36
2018-07-27T05:12:23.809Z,987.37
2018-07-27T05:13:24.089Z,987.41
2018-07-27T05:14:23.668Z,987.39
2018-07-27T05:15:23.598Z,987.41
2018-07-27T05:16:23.526Z,987.44
2018-07-27T05:17:23.455Z,987.44
2018-07-27T05:18:23.468Z,987.43
2018-07-27T05:19:23.313Z,987.42
2018-07-27T05:20:23.243Z,987.41
2018-07-27T05:21:23.173Z,987.39
2018-07-27T05:22:23.103Z,987.39
2018-07-27T05:23:23.031Z,987.45
2018-07-27T05:24:22.959Z,987.47
2018-07-27T05:25:22.890Z,987.46
2018-07-27T05:26:22.820Z,987.52
2018-07-27T05:27:22.747Z,987.48
2018-07-27T05:28:22.677Z,987.49
2018-07-27T05:29:22.608Z,987.52
2018-07-27T05:30:22.536Z,987.55
2018-07-27T05:31:22.467Z,987.60
2018-07-27T05:32:22.400Z,987.57
2018-07-27T05:33:22.324Z,987.63
2018-07-27T05:34:22.269Z,987.60
2018-07-27T05:35:22.185Z,987.56
2018-07-27T05:36:22.112Z,987.58
2018-07-27T05:37:22.045Z,987.58
2018-07-27T05:38:21.973Z,987.59
2018-07-27T05:39:21.903Z,987.61
2018-07-27T05:40:21.855Z,987.64
2018-07-27T05:41:21.762Z,987.65
2018-07-27T05:42:21.697Z,987.69
2018-07-27T05:43:21.624Z,987.66
2018-07-27T05:44:21.552Z,987.67
2018-07-27T05:45:21.486Z,987.67
2018-07-27T05:46:21.412Z,987.67
2018-07-27T05:47:21.349Z,987.61
2018-07-27T05:48:21.272Z,987.60
2018-07-27T05:49:21.201Z,987.65
2018-07-27T05:50:21.131Z,987.66
2018-07-27T05:51:21.062Z,987.62
2018-07-27T05:52:20.992Z,987.68
2018-07-27T05:53:20.922Z,987.67
2018-07-27T05:54:20.852Z,987.69
2018-07-27T05:55:20.783Z,987.71
2018-07-27T05:56:20.713Z,987.69
2018-07-27T05:57:20.642Z,987.69
2018-07-27T05:58:20.576Z,987.70
2018-07-27T05:59:20.554Z,987.70
2018-07-27T06:00:20.434Z,987.73
2018-07-27T06:01:20.365Z,987.72
2018-07-27T06:02:22.073Z,987.72
2018-07-27T06:03:20.226Z,987.73
2018-07-27T06:04:20.157Z,987.73
2018-07-27T06:05:20.087Z,987.69
2018-07-27T06:06:20.018Z,987.70
2018-07-27T06:07:19.949Z,987.67
2018-07-27T06:08:19.878Z,987.68
2018-07-27T06:09:19.812Z,987.69
2018-07-27T06:10:19.744Z,987.71
2018-07-27T06:11:19.672Z,987.75
2018-07-27T06:12:19.601Z,987.73
2018-07-27T06:13:19.533Z,987.76
2018-07-27T06:14:19.464Z,987.76
2018-07-27T06:15:19.395Z,987.79
2018-07-27T06:16:19.325Z,987.81
2018-07-27T06:17:19.255Z,987.79
2018-07-27T06:18:19.192Z,987.79
2018-07-27T06:19:19.118Z,987.78
2018-07-27T06:20:19.049Z,987.78
2018-07-27T06:21:18.980Z,987.77
2018-07-27T06:22:18.911Z,987.79
2018-07-27T06:23:18.844Z,987.76
2018-07-27T06:24:18.829Z,987.79
2018-07-27T06:25:18.711Z,987.77
2018-07-27T06:26:18.637Z,987.78
2018-07-27T06:27:18.570Z,987.80
2018-07-27T06:28:18.647Z,987.80
2018-07-27T06:29:18.476Z,987.80
2018-07-27T06:30:18.363Z,987.81
2018-07-27T06:31:18.294Z,987.79
2018-07-27T06:32:18.226Z,987.78
2018-07-27T06:33:18.157Z,987.82
2018-07-27T06:34:18.088Z,987.83
2018-07-27T06:35:18.020Z,987.87
2018-07-27T06:36:17.950Z,987.85
2018-07-27T06:37:17.886Z,987.79
2018-07-27T06:38:17.815Z,987.80
2018-07-27T06:39:17.746Z,987.77
2018-07-27T06:40:17.677Z,987.77
2018-07-27T06:41:17.608Z,987.81
2018-07-27T06:42:17.541Z,987.78
2018-07-27T06:43:17.472Z,987.79
2018-07-27T06:44:17.403Z,987.76
2018-07-27T06:45:17.363Z,987.78
2018-07-27T06:46:17.267Z,987.76
2018-07-27T06:47:17.199Z,987.77
2018-07-27T06:48:17.130Z,987.77
2018-07-27T06:49:17.062Z,987.77
2018-07-27T06:50:16.995Z,987.77
2018-07-27T06:51:16.926Z,987.80
2018-07-27T06:52:16.856Z,987.80
2018-07-27T06:53:16.789Z,987.82
2018-07-27T06:54:16.722Z,987.82
2018-07-27T06:55:16.653Z,987.80
2018-07-27T06:56:16.584Z,987.78
2018-07-27T06:57:16.515Z,987.83
2018-07-27T06:58:16.448Z,987.80
2018-07-27T06:59:16.381Z,987.79
2018-07-27T07:00:16.316Z,987.83
2018-07-27T07:01:16.247Z,987.83
2018-07-27T07:02:16.176Z,987.83
2018-07-27T07:03:16.109Z,987.88
2018-07-27T07:04:16.043Z,987.85
2018-07-27T07:05:15.972Z,987.89
2018-07-27T07:06:15.904Z,987.83
2018-07-27T07:07:15.835Z,987.79
2018-07-27T07:08:15.771Z,987.85
2018-07-27T07:09:15.700Z,987.84
2018-07-27T07:10:15.632Z,987.84
2018-07-27T07:11:15.567Z,987.84
2018-07-27T07:12:15.495Z,987.83
2018-07-27T07:13:15.429Z,987.81
2018-07-27T07:14:15.360Z,987.80
2018-07-27T07:15:15.294Z,987.83
2018-07-27T07:16:15.225Z,987.85
2018-07-27T07:17:15.158Z,987.86
2018-07-27T07:18:15.096Z,987.86
2018-07-27T07:19:15.033Z,987.89
2018-07-27T07:20:14.954Z,987.86
2018-07-27T07:21:14.887Z,987.90
2018-07-27T07:22:14.820Z,987.92
2018-07-27T07:23:14.752Z,987.88
2018-07-27T07:24:14.684Z,987.95
2018-07-27T07:25:14.787Z,987.90
2018-07-27T07:26:14.660Z,987.92
2018-07-27T07:27:14.484Z,987.89
2018-07-27T07:28:14.416Z,987.91
2018-07-27T07:29:14.348Z,987.87
2018-07-27T07:30:14.281Z,987.87
2018-07-27T07:31:14.214Z,987.88
2018-07-27T07:32:14.146Z,987.81
2018-07-27T07:33:14.118Z,987.85
2018-07-27T07:34:14.014Z,987.82
2018-07-27T07:35:13.946Z,987.84
2018-07-27T07:36:13.879Z,987.82
2018-07-27T07:37:13.812Z,987.84
2018-07-27T07:38:13.744Z,987.86
2018-07-27T07:39:13.723Z,987.84
2018-07-27T07:40:13.611Z,987.86
2018-07-27T07:41:13.544Z,987.85
2018-07-27T07:42:13.483Z,987.87
2018-07-27T07:43:13.420Z,987.85
2018-07-27T07:44:13.344Z,987.87
2018-07-27T07:45:13.281Z,987.83
2018-07-27T07:46:13.210Z,987.85
2018-07-27T07:47:13.144Z,987.88
2018-07-27T07:48:13.078Z,987.86
2018-07-27T07:49:13.013Z,987.84
2018-07-27T07:50:12.944Z,987.84
2018-07-27T07:51:12.878Z,987.80
2018-07-27T07:52:12.811Z,987.79
2018-07-27T07:53:12.745Z,987.77
2018-07-27T07:54:12.678Z,987.81
2018-07-27T07:55:12.611Z,987.80
2018-07-27T07:56:12.545Z,987.74
2018-07-27T07:57:12.482Z,987.75
2018-07-27T07:58:12.413Z,987.71
2018-07-27T07:59:12.346Z,987.74
2018-07-27T08:00:12.279Z,987.67
2018-07-27T08:01:12.216Z,987.69
2018-07-27T08:02:12.147Z,987.67
2018-07-27T08:03:12.080Z,987.67
2018-07-27T08:04:12.053Z,987.69
2018-07-27T08:05:11.947Z,987.65
2018-07-27T08:06:11.910Z,987.70
2018-07-27T08:07:11.815Z,987.60
2018-07-27T08:08:11.749Z,987.62
2018-07-27T08:09:11.681Z,987.66
2018-07-27T08:10:11.616Z,987.61
2018-07-27T08:11:11.590Z,987.62
2018-07-27T08:12:11.485Z,987.59
2018-07-27T08:13:11.419Z,987.57
2018-07-27T08:14:11.352Z,987.60
2018-07-27T08:15:11.286Z,987.58
2018-07-27T08:16:11.219Z,987.61
2018-07-27T08:17:11.178Z,987.62
2018-07-27T08:18:11.090Z,987.65
2018-07-27T08:19:11.022Z,987.66
2018-07-27T08:20:10.957Z,987.66
2018-07-27T08:21:10.891Z,987.65
2018-07-27T08:22:10.826Z,987.63
2018-07-27T08:23:10.763Z,987.64
2018-07-27T08:24:10.692Z,987.65
2018-07-27T08:25:10.629Z,987.61
2018-07-27T08:26:10.562Z,987.58
2018-07-27T08:27:10.499Z,987.62
2018-07-27T08:28:10.430Z,987.60
2018-07-27T08:29:10.364Z,987.57
2018-07-27T08:30:10.301Z,987.55
2018-07-27T08:31:10.233Z,987.57
2018-07-27T08:32:10.166Z,987.57
2018-07-27T08:33:10.102Z,987.53
2018-07-27T08:34:10.036Z,987.54
2018-07-27T08:35:09.971Z,987.53
2018-07-27T08:36:09.904Z,987.53
2018-07-27T08:37:09.839Z,987.49
2018-07-27T08:38:09.774Z,987.51
2018-07-27T08:39:09.708Z,987.50
2018-07-27T08:40:09.645Z,987.42
2018-07-27T08:41:09.577Z,987.42
2018-07-27T08:42:09.511Z,987.47
2018-07-27T08:43:09.446Z,987.48
2018-07-27T08:44:09.378Z,987.47
2018-07-27T08:45:09.316Z,987.44
2018-07-27T08:46:09.249Z,987.42
2018-07-27T08:47:09.221Z,987.46
2018-07-27T08:48:09.118Z,987.51
2018-07-27T08:49:09.052Z,987.45
2018-07-27T08:50:08.987Z,987.42
2018-07-27T08:51:08.922Z,987.45
2018-07-27T08:52:08.856Z,987.40
2018-07-27T08:53:08.791Z,987.44
2018-07-27T08:54:08.725Z,987.40
2018-07-27T08:55:08.660Z,987.35
2018-07-27T08:56:08.594Z,987.35
2018-07-27T08:57:08.528Z,987.37
2018-07-27T08:58:08.464Z,987.37
2018-07-27T08:59:08.399Z,987.39
2018-07-27T09:00:08.335Z,987.36
2018-07-27T09:01:08.268Z,987.38
2018-07-27T09:02:08.205Z,987.39
2018-07-27T09:03:08.138Z,987.39
2018-07-27T09:04:08.072Z,987.38
2018-07-27T09:05:08.005Z,987.37
2018-07-27T09:06:07.944Z,987.37
2018-07-27T09:07:07.877Z,987.38
2018-07-27T09:08:07.812Z,987.30
2018-07-27T09:09:07.746Z,987.28
2018-07-27T09:10:07.692Z,987.29
2018-07-27T09:11:07.619Z,987.34
2018-07-27T09:12:07.550Z,987.36
2018-07-27T09:13:07.485Z,987.32
2018-07-27T09:14:07.421Z,987.26
2018-07-27T09:15:07.356Z,987.30
2018-07-27T09:16:07.290Z,987.30
2018-07-27T09:17:07.226Z,987.26
2018-07-27T09:18:07.160Z,987.23
2018-07-27T09:19:07.095Z,987.24
2018-07-27T09:20:07.029Z,987.26
2018-07-27T09:21:06.965Z,987.26
2018-07-27T09:22:06.900Z,987.23
2018-07-27T09:23:06.837Z,987.25
2018-07-27T09:24:06.837Z,987.23
2018-07-27T09:25:06.976Z,987.27
2018-07-27T09:26:06.640Z,987.23
2018-07-27T09:27:06.577Z,987.23
2018-07-27T09:28:06.509Z,987.23
2018-07-27T09:29:06.446Z,987.26
2018-07-27T09:30:06.382Z,987.21
2018-07-27T09:31:06.316Z,987.21
2018-07-27T09:32:06.250Z,987.25
2018-07-27T09:33:06.191Z,987.19
2018-07-27T09:34:06.154Z,987.19
2018-07-27T09:35:06.066Z,987.20
2018-07-27T09:36:05.993Z,987.25
2018-07-27T09:37:05.928Z,987.21
2018-07-27T09:38:05.862Z,987.18
2018-07-27T09:39:05.798Z,987.22
2018-07-27T09:40:05.734Z,987.20
2018-07-27T09:41:05.668Z,987.20
2018-07-27T09:42:05.604Z,987.17
2018-07-27T09:43:05.540Z,987.16
2018-07-27T09:44:05.474Z,987.14
2018-07-27T09:45:05.410Z,987.17
2018-07-27T09:46:05.346Z,987.13
2018-07-27T09:47:05.282Z,987.18
2018-07-27T09:48:05.216Z,987.12
2018-07-27T09:49:05.152Z,987.16
2018-07-27T09:50:05.088Z,987.12
2018-07-27T09:51:05.025Z,987.17
2018-07-27T09:52:04.958Z,987.13
2018-07-27T09:53:04.894Z,987.11
2018-07-27T09:54:04.832Z,987.16
2018-07-27T09:55:04.765Z,987.16
2018-07-27T09:56:04.700Z,987.16
2018-07-27T09:57:04.635Z,987.15
2018-07-27T09:58:04.571Z,987.18
2018-07-27T09:59:04.507Z,987.15
2018-07-27T10:00:04.442Z,987.08
2018-07-27T10:01:04.377Z,987.09
2018-07-27T10:02:04.313Z,987.10
2018-07-27T10:03:04.248Z,987.10
2018-07-27T10:04:04.182Z,987.12
2018-07-27T10:05:04.119Z,987.11
2018-07-27T10:06:04.053Z,987.06
2018-07-27T10:07:03.990Z,987.07
2018-07-27T10:08:03.926Z,987.04
2018-07-27T10:09:03.860Z,987.04
2018-07-27T10:10:03.795Z,987.03
2018-07-27T10:11:03.731Z,987.02
2018-07-27T10:12:03.667Z,987.09
2018-07-27T10:13:03.602Z,987.04
2018-07-27T10:14:03.541Z,987.01
2018-07-27T10:15:03.474Z,987.01
2018-07-27T10:16:03.416Z,987.01
2018-07-27T10:17:03.344Z,987.03
2018-07-27T10:18:03.279Z,987.04
2018-07-27T10:19:03.215Z,987.01
2018-07-27T10:20:03.151Z,987.02
2018-07-27T10:21:03.086Z,987.01
2018-07-27T10:22:03.022Z,987.03
2018-07-27T10:23:02.958Z,987.02
2018-07-27T10:24:02.962Z,987.05
2018-07-27T10:25:02.829Z,986.95
2018-07-27T10:26:02.765Z,986.94
2018-07-27T10:27:02.703Z,986.96
2018-07-27T10:28:02.640Z,986.99
2018-07-27T10:29:02.570Z,986.98
2018-07-27T10:30:02.508Z,986.99
2018-07-27T10:31:02.442Z,986.94
2018-07-27T10:32:02.378Z,987.01
2018-07-27T10:33:02.314Z,987.00
2018-07-27T10:34:02.249Z,986.87
2018-07-27T10:35:02.186Z,986.89
2018-07-27T10:36:02.120Z,986.92
2018-07-27T10:37:02.056Z,986.95
2018-07-27T10:38:01.991Z,986.93
2018-07-27T10:39:01.929Z,986.91
2018-07-27T10:40:01.863Z,986.94
2018-07-27T10:41:01.800Z,986.91
2018-07-27T10:42:01.741Z,986.84
2018-07-27T10:43:01.672Z,986.76
2018-07-27T10:44:01.605Z,986.78
2018-07-27T10:45:01.543Z,986.80
2018-07-27T10:46:01.479Z,986.76
2018-07-27T10:47:01.413Z,986.73
2018-07-27T10:48:01.348Z,986.80
2018-07-27T10:49:01.285Z,986.75
2018-07-27T10:50:01.221Z,986.82
2018-07-27T10:51:01.157Z,986.74
2018-07-27T10:52:01.096Z,986.76
2018-07-27T10:53:01.030Z,986.74
2018-07-27T10:54:00.965Z,986.77
2018-07-27T10:55:00.901Z,986.79
2018-07-27T10:56:00.838Z,986.79
2018-07-27T10:57:00.774Z,986.79
2018-07-27T10:58:00.708Z,986.73
2018-07-27T10:59:00.645Z,986.74
2018-07-27T11:00:00.582Z,986.75
2018-07-27T11:01:00.517Z,986.70
2018-07-27T11:02:00.454Z,986.66
2018-07-27T11:03:00.390Z,986.68
2018-07-27T11:04:00.326Z,986.70
2018-07-27T11:05:00.262Z,986.74
2018-07-27T11:06:00.199Z,986.67
2018-07-27T11:07:00.135Z,986.64
2018-07-27T11:08:00.072Z,986.67
2018-07-27T11:09:00.010Z,986.60
2018-07-27T11:09:59.946Z,986.60
2018-07-27T11:10:59.881Z,986.55
2018-07-27T11:11:59.818Z,986.59
2018-07-27T11:12:59.754Z,986.56
2018-07-27T11:13:59.692Z,986.56
2018-07-27T11:14:59.628Z,986.57
2018-07-27T11:15:59.564Z,986.59
2018-07-27T11:16:59.500Z,986.57
2018-07-27T11:17:59.437Z,986.48
2018-07-27T11:18:59.374Z,986.48
2018-07-27T11:19:59.311Z,986.47
2018-07-27T11:20:59.248Z,986.41
2018-07-27T11:21:59.188Z,986.48
2018-07-27T11:22:59.123Z,986.47
2018-07-27T11:23:59.059Z,986.47
2018-07-27T11:24:58.996Z,986.45
2018-07-27T11:25:58.934Z,986.46
2018-07-27T11:26:58.871Z,986.45
2018-07-27T11:27:58.807Z,986.45
2018-07-27T11:28:58.744Z,986.47
2018-07-27T11:29:58.681Z,986.43
2018-07-27T11:30:58.721Z,986.39
2018-07-27T11:31:58.556Z,986.42
2018-07-27T11:32:58.492Z,986.43
2018-07-27T11:33:58.430Z,986.43
2018-07-27T11:34:58.367Z,986.42
2018-07-27T11:35:58.304Z,986.43
2018-07-27T11:36:58.293Z,986.43
2018-07-27T11:37:58.183Z,986.42
2018-07-27T11:38:58.118Z,986.43
2018-07-27T11:39:58.059Z,986.41
2018-07-27T11:40:57.989Z,986.38
2018-07-27T11:41:57.927Z,986.37
2018-07-27T11:42:57.865Z,986.33
2018-07-27T11:43:57.801Z,986.33
2018-07-27T11:44:57.739Z,986.32
2018-07-27T11:45:57.676Z,986.34
2018-07-27T11:46:57.615Z,986.30
2018-07-27T11:47:57.551Z,986.35
2018-07-27T11:48:57.490Z,986.08
2018-07-27T11:49:57.429Z,985.89
2018-07-27T11:50:57.368Z,985.94
2018-07-27T11:51:57.303Z,986.15
2018-07-27T11:52:57.241Z,986.27
2018-07-27T11:53:57.181Z,986.28
2018-07-27T11:54:57.121Z,986.25
2018-07-27T11:55:57.058Z,986.13
2018-07-27T11:56:57.001Z,986.13
2018-07-27T11:57:56.940Z,986.19
2018-07-27T11:58:56.880Z,986.25
2018-07-27T11:59:56.822Z,986.42
2018-07-27T12:00:56.765Z,986.42
2018-07-27T12:01:56.704Z,986.42
2018-07-27T12:02:56.650Z,986.21
2018-07-27T12:03:56.593Z,986.12
2018-07-27T12:04:56.530Z,986.44
2018-07-27T12:05:56.474Z,986.13
2018-07-27T12:06:56.432Z,986.13
2018-07-27T12:07:56.358Z,986.07
2018-07-27T12:08:56.310Z,986.01
2018-07-27T12:09:56.244Z,985.98
2018-07-27T12:10:56.185Z,986.04
2018-07-27T12:11:56.125Z,986.01
2018-07-27T12:12:56.068Z,985.99
2018-07-27T12:13:56.056Z,985.93
2018-07-27T12:14:56.096Z,986.00
2018-07-27T12:15:55.890Z,986.14
2018-07-27T12:16:55.834Z,986.59
2018-07-27T12:17:55.776Z,986.72
2018-07-27T12:18:55.712Z,986.68
2018-07-27T12:19:55.653Z,985.99
2018-07-27T12:20:55.692Z,986.01
2018-07-27T12:21:55.535Z,986.03
2018-07-27T12:22:55.475Z,985.94
2018-07-27T12:23:55.418Z,985.98
2018-07-27T12:24:55.357Z,986.00
2018-07-27T12:25:55.297Z,985.97
2018-07-27T12:26:55.239Z,986.02
2018-07-27T12:27:55.176Z,986.13